sensor_id;sensor_type;location;lat;lon;timestamp;temperature;humidity
1468;DHT22;727;48.892;9.544;2023-05-07T00:02:25;12.60;99.90
1468;DHT22;727;48.892;9.544;2023-05-07T00:04:52;12.60;99.90
1468;DHT22;727;48.892;9.544;2023-05-07T00:07:20;12.60;99.90
1468;DHT22;727;48.892;9.544;2023-05-07T00:09:47;12.50;99.90
1468;DHT22;727;48.892;9.544;2023-05-07T00:12:13;12.50;99.90
1468;DHT22;727;48.892;9.544;2023-05-07T00:14:40;12.50;99.90
1468;DHT22;727;48.892;9.544;2023-05-07T00:17:07;12.40;99.90
1468;DHT22;727;48.892;9.544;2023-05-07T00:19:34;12.40;99.90
1468;DHT22;727;48.892;9.544;2023-05-07T00:22:01;12.40;99.90
1468;DHT22;727;48.892;9.544;2023-05-07T00:24:29;12.30;99.90
1468;DHT22;727;48.892;9.544;2023-05-07T00:26:55;12.30;99.90
1468;DHT22;727;48.892;9.544;2023-05-07T00:29:23;12.30;99.90
1468;DHT22;727;48.892;9.544;2023-05-07T00:31:50;12.30;99.90
1468;DHT22;727;48.892;9.544;2023-05-07T00:34:19;12.20;99.90
1468;DHT22;727;48.892;9.544;2023-05-07T00:36:46;12.20;99.90
1468;DHT22;727;48.892;9.544;2023-05-07T00:39:12;12.20;99.90
1468;DHT22;727;48.892;9.544;2023-05-07T00:41:40;12.20;99.90
1468;DHT22;727;48.892;9.544;2023-05-07T00:44:07;12.10;99.90
1468;DHT22;727;48.892;9.544;2023-05-07T00:46:34;12.20;99.90
1468;DHT22;727;48.892;9.544;2023-05-07T00:49:01;12.20;99.90
1468;DHT22;727;48.892;9.544;2023-05-07T00:51:30;12.20;99.90
1468;DHT22;727;48.892;9.544;2023-05-07T00:53:56;12.20;99.90
1468;DHT22;727;48.892;9.544;2023-05-07T00:56:23;12.10;99.90
1468;DHT22;727;48.892;9.544;2023-05-07T00:58:52;12.10;99.90
1468;DHT22;727;48.892;9.544;2023-05-07T01:01:19;12.10;99.90
1468;DHT22;727;48.892;9.544;2023-05-07T01:03:46;12.10;99.90
1468;DHT22;727;48.892;9.544;2023-05-07T01:06:13;12.00;99.90
1468;DHT22;727;48.892;9.544;2023-05-07T01:08:42;12.00;99.90
1468;DHT22;727;48.892;9.544;2023-05-07T01:11:10;12.00;99.90
1468;DHT22;727;48.892;9.544;2023-05-07T01:13:38;12.00;99.90
1468;DHT22;727;48.892;9.544;2023-05-07T01:16:07;12.00;99.90
1468;DHT22;727;48.892;9.544;2023-05-07T01:18:35;11.90;99.90
1468;DHT22;727;48.892;9.544;2023-05-07T01:21:04;12.00;99.90
1468;DHT22;727;48.892;9.544;2023-05-07T01:23:33;11.90;99.90
1468;DHT22;727;48.892;9.544;2023-05-07T01:26:01;11.90;99.90
1468;DHT22;727;48.892;9.544;2023-05-07T01:28:27;11.90;99.90
1468;DHT22;727;48.892;9.544;2023-05-07T01:30:56;11.90;99.90
1468;DHT22;727;48.892;9.544;2023-05-07T01:33:51;11.80;99.90
1468;DHT22;727;48.892;9.544;2023-05-07T01:37:10;11.80;99.90
1468;DHT22;727;48.892;9.544;2023-05-07T01:39:53;11.80;99.90
1468;DHT22;727;48.892;9.544;2023-05-07T01:42:43;11.80;99.90
1468;DHT22;727;48.892;9.544;2023-05-07T01:45:10;11.70;99.90
1468;DHT22;727;48.892;9.544;2023-05-07T01:47:37;11.70;99.90
1468;DHT22;727;48.892;9.544;2023-05-07T01:50:06;11.70;99.90
1468;DHT22;727;48.892;9.544;2023-05-07T01:52:33;11.70;99.90
1468;DHT22;727;48.892;9.544;2023-05-07T01:55:05;11.70;99.90
1468;DHT22;727;48.892;9.544;2023-05-07T01:57:32;11.70;99.90
1468;DHT22;727;48.892;9.544;2023-05-07T01:59:59;11.60;99.90
1468;DHT22;727;48.892;9.544;2023-05-07T02:02:26;11.60;99.90
1468;DHT22;727;48.892;9.544;2023-05-07T02:04:52;11.60;99.90
1468;DHT22;727;48.892;9.544;2023-05-07T02:07:19;11.50;99.90
1468;DHT22;727;48.892;9.544;2023-05-07T02:09:46;11.60;99.90
1468;DHT22;727;48.892;9.544;2023-05-07T02:12:14;11.50;99.90
1468;DHT22;727;48.892;9.544;2023-05-07T02:14:41;11.50;99.90
1468;DHT22;727;48.892;9.544;2023-05-07T02:17:10;11.50;99.90
1468;DHT22;727;48.892;9.544;2023-05-07T02:19:37;11.50;99.90
1468;DHT22;727;48.892;9.544;2023-05-07T02:22:04;11.40;99.90
1468;DHT22;727;48.892;9.544;2023-05-07T02:24:31;11.50;99.90
1468;DHT22;727;48.892;9.544;2023-05-07T02:26:57;11.40;99.90
1468;DHT22;727;48.892;9.544;2023-05-07T02:29:26;11.40;99.90
1468;DHT22;727;48.892;9.544;2023-05-07T02:31:52;11.40;99.90
1468;DHT22;727;48.892;9.544;2023-05-07T02:34:19;11.30;99.90
1468;DHT22;727;48.892;9.544;2023-05-07T02:36:46;11.30;99.90
1468;DHT22;727;48.892;9.544;2023-05-07T02:39:13;11.30;99.90
1468;DHT22;727;48.892;9.544;2023-05-07T02:41:40;11.20;99.90
1468;DHT22;727;48.892;9.544;2023-05-07T02:44:07;11.30;99.90
1468;DHT22;727;48.892;9.544;2023-05-07T02:46:35;11.20;99.90
1468;DHT22;727;48.892;9.544;2023-05-07T02:49:02;11.20;99.90
1468;DHT22;727;48.892;9.544;2023-05-07T02:51:30;11.20;99.90
1468;DHT22;727;48.892;9.544;2023-05-07T02:53:57;11.10;99.90
1468;DHT22;727;48.892;9.544;2023-05-07T02:56:25;11.10;99.90
1468;DHT22;727;48.892;9.544;2023-05-07T02:58:52;11.00;99.90
1468;DHT22;727;48.892;9.544;2023-05-07T03:01:19;11.00;99.90
1468;DHT22;727;48.892;9.544;2023-05-07T03:03:47;10.90;99.90
1468;DHT22;727;48.892;9.544;2023-05-07T03:06:15;10.90;99.90
1468;DHT22;727;48.892;9.544;2023-05-07T03:08:42;10.90;99.90
1468;DHT22;727;48.892;9.544;2023-05-07T03:11:12;10.80;99.90
1468;DHT22;727;48.892;9.544;2023-05-07T03:13:38;10.80;99.90
1468;DHT22;727;48.892;9.544;2023-05-07T03:16:06;10.80;99.90
1468;DHT22;727;48.892;9.544;2023-05-07T03:18:32;10.80;99.90
1468;DHT22;727;48.892;9.544;2023-05-07T03:21:00;10.80;99.90
1468;DHT22;727;48.892;9.544;2023-05-07T03:23:27;10.70;99.90
1468;DHT22;727;48.892;9.544;2023-05-07T03:25:57;10.70;99.90
1468;DHT22;727;48.892;9.544;2023-05-07T03:28:24;10.60;99.90
1468;DHT22;727;48.892;9.544;2023-05-07T03:30:50;10.60;99.90
1468;DHT22;727;48.892;9.544;2023-05-07T03:33:17;10.50;99.90
1468;DHT22;727;48.892;9.544;2023-05-07T03:35:44;10.50;99.90
1468;DHT22;727;48.892;9.544;2023-05-07T03:38:12;10.50;99.90
1468;DHT22;727;48.892;9.544;2023-05-07T03:40:39;10.50;99.90
1468;DHT22;727;48.892;9.544;2023-05-07T03:43:06;10.50;99.90
1468;DHT22;727;48.892;9.544;2023-05-07T03:45:32;10.50;99.90
1468;DHT22;727;48.892;9.544;2023-05-07T03:47:59;10.50;99.90
1468;DHT22;727;48.892;9.544;2023-05-07T03:50:26;10.40;99.90
1468;DHT22;727;48.892;9.544;2023-05-07T03:52:52;10.50;99.90
1468;DHT22;727;48.892;9.544;2023-05-07T03:55:21;10.50;99.90
1468;DHT22;727;48.892;9.544;2023-05-07T03:57:47;10.50;99.90
1468;DHT22;727;48.892;9.544;2023-05-07T04:00:14;10.50;99.90
1468;DHT22;727;48.892;9.544;2023-05-07T04:02:41;10.50;99.90
1468;DHT22;727;48.892;9.544;2023-05-07T04:05:08;10.50;99.90
1468;DHT22;727;48.892;9.544;2023-05-07T04:07:35;10.50;99.90
1468;DHT22;727;48.892;9.544;2023-05-07T04:10:02;10.50;99.90
1468;DHT22;727;48.892;9.544;2023-05-07T04:12:30;10.60;99.90
1468;DHT22;727;48.892;9.544;2023-05-07T04:14:57;10.60;99.90
1468;DHT22;727;48.892;9.544;2023-05-07T04:17:24;10.70;99.90
1468;DHT22;727;48.892;9.544;2023-05-07T04:19:51;10.70;99.90
1468;DHT22;727;48.892;9.544;2023-05-07T04:22:17;10.70;99.90
1468;DHT22;727;48.892;9.544;2023-05-07T04:24:44;10.80;99.90
1468;DHT22;727;48.892;9.544;2023-05-07T04:27:11;10.90;99.90
1468;DHT22;727;48.892;9.544;2023-05-07T04:29:39;11.00;99.90
1468;DHT22;727;48.892;9.544;2023-05-07T04:32:08;11.10;99.90
1468;DHT22;727;48.892;9.544;2023-05-07T04:34:34;11.30;99.90
1468;DHT22;727;48.892;9.544;2023-05-07T04:37:01;11.40;99.90
1468;DHT22;727;48.892;9.544;2023-05-07T04:39:28;11.60;99.90
1468;DHT22;727;48.892;9.544;2023-05-07T04:41:54;12.00;99.90
1468;DHT22;727;48.892;9.544;2023-05-07T04:44:21;12.50;99.90
1468;DHT22;727;48.892;9.544;2023-05-07T04:46:49;13.30;99.90
1468;DHT22;727;48.892;9.544;2023-05-07T04:49:16;14.20;99.90
1468;DHT22;727;48.892;9.544;2023-05-07T04:51:43;14.90;99.90
1468;DHT22;727;48.892;9.544;2023-05-07T04:54:10;15.60;99.90
1468;DHT22;727;48.892;9.544;2023-05-07T04:56:36;16.50;99.90
1468;DHT22;727;48.892;9.544;2023-05-07T04:59:03;17.40;99.90
1468;DHT22;727;48.892;9.544;2023-05-07T05:01:31;18.20;99.20
1468;DHT22;727;48.892;9.544;2023-05-07T05:03:59;18.90;96.60
1468;DHT22;727;48.892;9.544;2023-05-07T05:06:26;19.60;95.10
1468;DHT22;727;48.892;9.544;2023-05-07T05:08:53;20.30;92.70
1468;DHT22;727;48.892;9.544;2023-05-07T05:11:20;20.90;91.30
1468;DHT22;727;48.892;9.544;2023-05-07T05:13:47;21.20;89.80
1468;DHT22;727;48.892;9.544;2023-05-07T05:16:14;21.00;89.80
1468;DHT22;727;48.892;9.544;2023-05-07T05:18:41;20.60;89.50
1468;DHT22;727;48.892;9.544;2023-05-07T05:21:09;20.00;90.60
1468;DHT22;727;48.892;9.544;2023-05-07T05:23:36;19.50;91.20
1468;DHT22;727;48.892;9.544;2023-05-07T05:26:02;18.70;92.20
1468;DHT22;727;48.892;9.544;2023-05-07T05:28:29;17.90;93.10
1468;DHT22;727;48.892;9.544;2023-05-07T05:30:56;17.20;94.30
1468;DHT22;727;48.892;9.544;2023-05-07T05:33:22;16.60;95.70
1468;DHT22;727;48.892;9.544;2023-05-07T05:35:49;16.20;96.80
1468;DHT22;727;48.892;9.544;2023-05-07T05:38:18;16.10;97.70
1468;DHT22;727;48.892;9.544;2023-05-07T05:40:46;15.90;98.10
1468;DHT22;727;48.892;9.544;2023-05-07T05:43:13;15.50;99.30
1468;DHT22;727;48.892;9.544;2023-05-07T05:45:40;15.30;99.90
1468;DHT22;727;48.892;9.544;2023-05-07T05:48:07;15.00;99.90
1468;DHT22;727;48.892;9.544;2023-05-07T05:50:34;14.90;99.90
1468;DHT22;727;48.892;9.544;2023-05-07T05:53:02;14.80;99.90
1468;DHT22;727;48.892;9.544;2023-05-07T05:55:30;14.80;99.90
1468;DHT22;727;48.892;9.544;2023-05-07T05:57:57;15.20;99.90
1468;DHT22;727;48.892;9.544;2023-05-07T06:00:24;16.20;99.90
1468;DHT22;727;48.892;9.544;2023-05-07T06:02:52;17.30;99.90
1468;DHT22;727;48.892;9.544;2023-05-07T06:05:18;19.00;98.50
1468;DHT22;727;48.892;9.544;2023-05-07T06:07:45;20.50;95.00
1468;DHT22;727;48.892;9.544;2023-05-07T06:10:12;21.60;92.10
1468;DHT22;727;48.892;9.544;2023-05-07T06:12:40;22.70;89.30
1468;DHT22;727;48.892;9.544;2023-05-07T06:15:07;22.80;86.10
1468;DHT22;727;48.892;9.544;2023-05-07T06:17:34;22.50;85.80
1468;DHT22;727;48.892;9.544;2023-05-07T06:20:01;22.10;85.70
1468;DHT22;727;48.892;9.544;2023-05-07T06:22:27;21.90;86.30
1468;DHT22;727;48.892;9.544;2023-05-07T06:24:54;21.80;88.00
1468;DHT22;727;48.892;9.544;2023-05-07T06:27:21;21.60;87.70
1468;DHT22;727;48.892;9.544;2023-05-07T06:29:49;21.50;89.40
1468;DHT22;727;48.892;9.544;2023-05-07T06:32:16;21.20;89.50
1468;DHT22;727;48.892;9.544;2023-05-07T06:34:43;20.90;90.00
1468;DHT22;727;48.892;9.544;2023-05-07T06:37:09;20.70;90.30
1468;DHT22;727;48.892;9.544;2023-05-07T06:39:36;20.30;90.80
1468;DHT22;727;48.892;9.544;2023-05-07T06:42:03;20.30;91.20
1468;DHT22;727;48.892;9.544;2023-05-07T06:44:30;20.40;91.20
1468;DHT22;727;48.892;9.544;2023-05-07T06:46:58;20.50;90.90
1468;DHT22;727;48.892;9.544;2023-05-07T06:49:25;20.00;91.40
1468;DHT22;727;48.892;9.544;2023-05-07T06:51:51;19.70;91.50
1468;DHT22;727;48.892;9.544;2023-05-07T06:54:18;19.60;92.10
1468;DHT22;727;48.892;9.544;2023-05-07T06:56:45;19.60;92.60
1468;DHT22;727;48.892;9.544;2023-05-07T06:59:12;19.70;92.80
1468;DHT22;727;48.892;9.544;2023-05-07T07:01:39;19.60;92.30
1468;DHT22;727;48.892;9.544;2023-05-07T07:04:07;19.60;92.60
1468;DHT22;727;48.892;9.544;2023-05-07T07:06:33;19.70;92.80
1468;DHT22;727;48.892;9.544;2023-05-07T07:09:00;19.70;92.90
1468;DHT22;727;48.892;9.544;2023-05-07T07:11:27;19.90;93.70
1468;DHT22;727;48.892;9.544;2023-05-07T07:13:54;20.50;93.10
1468;DHT22;727;48.892;9.544;2023-05-07T07:16:20;20.70;91.90
1468;DHT22;727;48.892;9.544;2023-05-07T07:18:47;21.20;91.80
1468;DHT22;727;48.892;9.544;2023-05-07T07:21:15;21.80;91.40
1468;DHT22;727;48.892;9.544;2023-05-07T07:23:42;21.90;90.10
1468;DHT22;727;48.892;9.544;2023-05-07T07:26:09;22.00;90.10
1468;DHT22;727;48.892;9.544;2023-05-07T07:28:42;22.30;90.00
1468;DHT22;727;48.892;9.544;2023-05-07T07:31:09;22.80;86.80
1468;DHT22;727;48.892;9.544;2023-05-07T07:33:35;23.00;84.90
1468;DHT22;727;48.892;9.544;2023-05-07T07:36:02;23.00;84.20
1468;DHT22;727;48.892;9.544;2023-05-07T07:38:32;23.50;82.40
1468;DHT22;727;48.892;9.544;2023-05-07T07:40:59;23.60;82.00
1468;DHT22;727;48.892;9.544;2023-05-07T07:43:26;23.90;81.10
1468;DHT22;727;48.892;9.544;2023-05-07T07:45:53;24.20;79.70
1468;DHT22;727;48.892;9.544;2023-05-07T07:48:19;24.50;79.10
1468;DHT22;727;48.892;9.544;2023-05-07T07:50:48;24.80;77.20
1468;DHT22;727;48.892;9.544;2023-05-07T07:53:15;24.80;76.20
1468;DHT22;727;48.892;9.544;2023-05-07T07:55:43;24.80;74.80
1468;DHT22;727;48.892;9.544;2023-05-07T07:58:10;24.50;74.90
1468;DHT22;727;48.892;9.544;2023-05-07T08:00:37;24.50;77.10
1468;DHT22;727;48.892;9.544;2023-05-07T08:03:04;24.40;77.30
1468;DHT22;727;48.892;9.544;2023-05-07T08:05:32;24.60;76.30
1468;DHT22;727;48.892;9.544;2023-05-07T08:07:59;24.60;75.30
1468;DHT22;727;48.892;9.544;2023-05-07T08:10:26;24.90;75.10
1468;DHT22;727;48.892;9.544;2023-05-07T08:12:54;25.10;75.40
1468;DHT22;727;48.892;9.544;2023-05-07T08:15:21;25.10;71.60
1468;DHT22;727;48.892;9.544;2023-05-07T08:17:47;25.30;71.80
1468;DHT22;727;48.892;9.544;2023-05-07T08:20:14;25.40;72.60
1468;DHT22;727;48.892;9.544;2023-05-07T08:22:41;25.40;71.20
1468;DHT22;727;48.892;9.544;2023-05-07T08:25:08;25.40;71.00
1468;DHT22;727;48.892;9.544;2023-05-07T08:27:35;25.20;70.20
1468;DHT22;727;48.892;9.544;2023-05-07T08:30:04;25.00;70.70
1468;DHT22;727;48.892;9.544;2023-05-07T08:32:31;24.80;70.10
1468;DHT22;727;48.892;9.544;2023-05-07T08:34:58;24.30;69.90
1468;DHT22;727;48.892;9.544;2023-05-07T08:37:25;24.10;70.30
1468;DHT22;727;48.892;9.544;2023-05-07T08:39:51;24.00;71.10
1468;DHT22;727;48.892;9.544;2023-05-07T08:42:18;23.90;72.60
1468;DHT22;727;48.892;9.544;2023-05-07T08:44:48;24.00;72.70
1468;DHT22;727;48.892;9.544;2023-05-07T08:47:23;24.00;73.50
1468;DHT22;727;48.892;9.544;2023-05-07T08:49:54;24.10;72.70
1468;DHT22;727;48.892;9.544;2023-05-07T08:52:21;24.20;71.70
1468;DHT22;727;48.892;9.544;2023-05-07T08:54:47;24.40;72.10
1468;DHT22;727;48.892;9.544;2023-05-07T08:57:14;24.50;72.70
1468;DHT22;727;48.892;9.544;2023-05-07T08:59:41;24.50;71.30
1468;DHT22;727;48.892;9.544;2023-05-07T09:02:09;24.50;71.60
1468;DHT22;727;48.892;9.544;2023-05-07T09:04:38;24.50;70.90
1468;DHT22;727;48.892;9.544;2023-05-07T09:07:04;24.40;71.90
1468;DHT22;727;48.892;9.544;2023-05-07T09:09:32;24.40;72.00
1468;DHT22;727;48.892;9.544;2023-05-07T09:11:59;24.20;72.20
1468;DHT22;727;48.892;9.544;2023-05-07T09:14:27;24.30;72.60
1468;DHT22;727;48.892;9.544;2023-05-07T09:16:56;24.60;72.20
1468;DHT22;727;48.892;9.544;2023-05-07T09:19:26;25.00;71.70
1468;DHT22;727;48.892;9.544;2023-05-07T09:21:59;25.40;70.60
1468;DHT22;727;48.892;9.544;2023-05-07T09:24:26;25.80;68.80
1468;DHT22;727;48.892;9.544;2023-05-07T09:26:57;25.90;66.60
1468;DHT22;727;48.892;9.544;2023-05-07T09:29:25;25.90;67.50
1468;DHT22;727;48.892;9.544;2023-05-07T09:31:54;26.00;65.20
1468;DHT22;727;48.892;9.544;2023-05-07T09:34:21;26.20;65.30
1468;DHT22;727;48.892;9.544;2023-05-07T09:36:48;26.50;63.00
1468;DHT22;727;48.892;9.544;2023-05-07T09:39:16;26.40;64.00
1468;DHT22;727;48.892;9.544;2023-05-07T09:41:44;26.20;63.50
1468;DHT22;727;48.892;9.544;2023-05-07T09:44:11;26.10;64.50
1468;DHT22;727;48.892;9.544;2023-05-07T09:46:39;26.30;66.10
1468;DHT22;727;48.892;9.544;2023-05-07T09:49:11;26.50;63.40
1468;DHT22;727;48.892;9.544;2023-05-07T09:51:43;26.70;63.60
1468;DHT22;727;48.892;9.544;2023-05-07T09:54:12;27.00;62.10
1468;DHT22;727;48.892;9.544;2023-05-07T09:56:40;27.10;61.20
1468;DHT22;727;48.892;9.544;2023-05-07T09:59:08;27.00;61.00
1468;DHT22;727;48.892;9.544;2023-05-07T10:01:36;26.70;62.20
1468;DHT22;727;48.892;9.544;2023-05-07T10:04:03;26.20;63.20
1468;DHT22;727;48.892;9.544;2023-05-07T10:06:34;25.60;64.80
1468;DHT22;727;48.892;9.544;2023-05-07T10:09:01;26.10;65.40
1468;DHT22;727;48.892;9.544;2023-05-07T10:11:28;26.20;63.80
1468;DHT22;727;48.892;9.544;2023-05-07T10:13:57;26.20;63.20
1468;DHT22;727;48.892;9.544;2023-05-07T10:16:25;26.00;64.80
1468;DHT22;727;48.892;9.544;2023-05-07T10:18:53;26.10;64.30
1468;DHT22;727;48.892;9.544;2023-05-07T10:21:23;26.60;64.80
1468;DHT22;727;48.892;9.544;2023-05-07T10:23:51;26.50;63.50
1468;DHT22;727;48.892;9.544;2023-05-07T10:26:21;26.30;63.70
1468;DHT22;727;48.892;9.544;2023-05-07T10:28:51;26.20;63.50
1468;DHT22;727;48.892;9.544;2023-05-07T10:31:35;26.10;63.40
1468;DHT22;727;48.892;9.544;2023-05-07T10:34:10;26.00;64.00
1468;DHT22;727;48.892;9.544;2023-05-07T10:36:37;26.10;63.10
1468;DHT22;727;48.892;9.544;2023-05-07T10:39:05;26.30;64.60
1468;DHT22;727;48.892;9.544;2023-05-07T10:41:32;27.00;64.60
1468;DHT22;727;48.892;9.544;2023-05-07T10:44:00;27.50;61.60
1468;DHT22;727;48.892;9.544;2023-05-07T10:46:29;28.10;59.80
1468;DHT22;727;48.892;9.544;2023-05-07T10:49:11;28.70;58.00
1468;DHT22;727;48.892;9.544;2023-05-07T10:51:38;28.60;58.00
1468;DHT22;727;48.892;9.544;2023-05-07T10:54:22;28.90;58.80
1468;DHT22;727;48.892;9.544;2023-05-07T10:56:50;28.90;55.60
1468;DHT22;727;48.892;9.544;2023-05-07T10:59:36;29.10;55.90
1468;DHT22;727;48.892;9.544;2023-05-07T11:02:13;28.80;57.20
1468;DHT22;727;48.892;9.544;2023-05-07T11:04:40;28.30;58.20
1468;DHT22;727;48.892;9.544;2023-05-07T11:07:26;27.80;58.40
1468;DHT22;727;48.892;9.544;2023-05-07T11:09:57;27.20;60.40
1468;DHT22;727;48.892;9.544;2023-05-07T11:15:41;26.50;60.70
1468;DHT22;727;48.892;9.544;2023-05-07T11:18:13;26.50;61.80
1468;DHT22;727;48.892;9.544;2023-05-07T11:20:55;26.50;61.10
1468;DHT22;727;48.892;9.544;2023-05-07T11:23:57;26.50;60.00
1468;DHT22;727;48.892;9.544;2023-05-07T11:26:28;26.30;60.90
1468;DHT22;727;48.892;9.544;2023-05-07T11:28:55;26.40;61.20
1468;DHT22;727;48.892;9.544;2023-05-07T11:31:24;26.40;61.00
1468;DHT22;727;48.892;9.544;2023-05-07T11:33:54;26.60;63.90
1468;DHT22;727;48.892;9.544;2023-05-07T11:36:22;26.90;62.50
1468;DHT22;727;48.892;9.544;2023-05-07T11:38:49;26.90;59.40
1468;DHT22;727;48.892;9.544;2023-05-07T11:41:16;27.30;59.40
1468;DHT22;727;48.892;9.544;2023-05-07T11:43:58;27.50;57.80
1468;DHT22;727;48.892;9.544;2023-05-07T11:46:26;27.70;57.50
1468;DHT22;727;48.892;9.544;2023-05-07T11:48:54;27.80;58.30
1468;DHT22;727;48.892;9.544;2023-05-07T11:51:23;27.80;57.40
1468;DHT22;727;48.892;9.544;2023-05-07T11:53:51;27.70;57.60
1468;DHT22;727;48.892;9.544;2023-05-07T11:56:19;27.80;58.20
1468;DHT22;727;48.892;9.544;2023-05-07T11:58:47;27.70;57.30
1468;DHT22;727;48.892;9.544;2023-05-07T12:01:14;27.30;58.40
1468;DHT22;727;48.892;9.544;2023-05-07T12:03:43;27.20;58.90
1468;DHT22;727;48.892;9.544;2023-05-07T12:06:13;27.10;59.10
1468;DHT22;727;48.892;9.544;2023-05-07T12:08:42;26.70;59.00
1468;DHT22;727;48.892;9.544;2023-05-07T12:11:14;27.10;58.50
1468;DHT22;727;48.892;9.544;2023-05-07T12:13:42;27.60;57.30
1468;DHT22;727;48.892;9.544;2023-05-07T12:16:09;27.60;56.90
1468;DHT22;727;48.892;9.544;2023-05-07T12:18:37;27.60;57.40
1468;DHT22;727;48.892;9.544;2023-05-07T12:21:05;27.20;58.20
1468;DHT22;727;48.892;9.544;2023-05-07T12:23:35;27.00;58.60
1468;DHT22;727;48.892;9.544;2023-05-07T12:26:03;26.80;59.20
1468;DHT22;727;48.892;9.544;2023-05-07T12:28:30;26.60;60.10
1468;DHT22;727;48.892;9.544;2023-05-07T12:30:57;26.50;59.30
1468;DHT22;727;48.892;9.544;2023-05-07T12:33:25;26.40;59.30
1468;DHT22;727;48.892;9.544;2023-05-07T12:35:54;26.20;59.50
1468;DHT22;727;48.892;9.544;2023-05-07T12:38:21;26.00;60.00
1468;DHT22;727;48.892;9.544;2023-05-07T12:40:53;25.70;61.10
1468;DHT22;727;48.892;9.544;2023-05-07T12:43:23;25.40;61.50
1468;DHT22;727;48.892;9.544;2023-05-07T12:45:52;25.30;62.20
1468;DHT22;727;48.892;9.544;2023-05-07T12:48:20;25.20;63.20
1468;DHT22;727;48.892;9.544;2023-05-07T12:50:49;25.10;63.50
1468;DHT22;727;48.892;9.544;2023-05-07T12:53:16;24.90;64.00
1468;DHT22;727;48.892;9.544;2023-05-07T12:55:44;24.60;65.10
1468;DHT22;727;48.892;9.544;2023-05-07T12:58:19;24.50;64.30
1468;DHT22;727;48.892;9.544;2023-05-07T13:00:48;24.30;64.90
1468;DHT22;727;48.892;9.544;2023-05-07T13:03:21;24.10;65.20
1468;DHT22;727;48.892;9.544;2023-05-07T13:05:48;24.00;65.00
1468;DHT22;727;48.892;9.544;2023-05-07T13:08:26;24.00;66.40
1468;DHT22;727;48.892;9.544;2023-05-07T13:10:53;23.90;66.10
1468;DHT22;727;48.892;9.544;2023-05-07T13:13:21;23.80;66.80
1468;DHT22;727;48.892;9.544;2023-05-07T13:15:48;23.60;67.50
1468;DHT22;727;48.892;9.544;2023-05-07T13:18:15;23.40;69.40
1468;DHT22;727;48.892;9.544;2023-05-07T13:20:42;22.80;75.20
1468;DHT22;727;48.892;9.544;2023-05-07T13:23:08;22.40;80.10
1468;DHT22;727;48.892;9.544;2023-05-07T13:25:35;21.80;85.90
1468;DHT22;727;48.892;9.544;2023-05-07T13:28:02;21.10;87.90
1468;DHT22;727;48.892;9.544;2023-05-07T13:30:31;20.80;90.50
1468;DHT22;727;48.892;9.544;2023-05-07T13:32:57;20.40;91.70
1468;DHT22;727;48.892;9.544;2023-05-07T13:35:24;20.10;94.90
1468;DHT22;727;48.892;9.544;2023-05-07T13:37:51;19.50;99.20
1468;DHT22;727;48.892;9.544;2023-05-07T13:40:20;19.00;99.90
1468;DHT22;727;48.892;9.544;2023-05-07T13:42:47;18.60;99.90
1468;DHT22;727;48.892;9.544;2023-05-07T13:45:13;18.40;99.90
1468;DHT22;727;48.892;9.544;2023-05-07T13:47:41;18.20;99.90
1468;DHT22;727;48.892;9.544;2023-05-07T13:50:09;18.00;99.90
1468;DHT22;727;48.892;9.544;2023-05-07T13:52:36;18.00;99.90
1468;DHT22;727;48.892;9.544;2023-05-07T13:55:06;18.00;99.90
1468;DHT22;727;48.892;9.544;2023-05-07T13:57:33;18.00;99.90
1468;DHT22;727;48.892;9.544;2023-05-07T13:59:59;18.10;99.90
1468;DHT22;727;48.892;9.544;2023-05-07T14:02:26;17.90;99.90
1468;DHT22;727;48.892;9.544;2023-05-07T14:04:54;17.70;99.90
1468;DHT22;727;48.892;9.544;2023-05-07T14:07:21;17.60;99.90
1468;DHT22;727;48.892;9.544;2023-05-07T14:09:48;17.40;99.90
1468;DHT22;727;48.892;9.544;2023-05-07T14:12:15;17.30;99.90
1468;DHT22;727;48.892;9.544;2023-05-07T14:14:41;17.10;99.90
1468;DHT22;727;48.892;9.544;2023-05-07T14:17:08;17.00;99.90
1468;DHT22;727;48.892;9.544;2023-05-07T14:19:35;17.00;99.90
1468;DHT22;727;48.892;9.544;2023-05-07T14:22:03;17.00;99.90
1468;DHT22;727;48.892;9.544;2023-05-07T14:24:30;17.00;99.90
1468;DHT22;727;48.892;9.544;2023-05-07T14:26:56;17.10;99.90
1468;DHT22;727;48.892;9.544;2023-05-07T14:29:23;17.10;99.90
1468;DHT22;727;48.892;9.544;2023-05-07T14:31:50;17.20;99.90
1468;DHT22;727;48.892;9.544;2023-05-07T14:34:17;17.30;99.90
1468;DHT22;727;48.892;9.544;2023-05-07T14:36:43;17.30;99.90
1468;DHT22;727;48.892;9.544;2023-05-07T14:39:11;17.50;99.90
1468;DHT22;727;48.892;9.544;2023-05-07T14:41:38;17.50;99.90
1468;DHT22;727;48.892;9.544;2023-05-07T14:44:05;17.50;99.90
1468;DHT22;727;48.892;9.544;2023-05-07T14:46:32;17.60;99.90
1468;DHT22;727;48.892;9.544;2023-05-07T14:48:58;17.70;99.90
1468;DHT22;727;48.892;9.544;2023-05-07T14:51:25;17.80;99.90
1468;DHT22;727;48.892;9.544;2023-05-07T14:53:53;17.90;99.90
1468;DHT22;727;48.892;9.544;2023-05-07T14:56:21;17.90;99.90
1468;DHT22;727;48.892;9.544;2023-05-07T14:58:48;18.00;99.90
1468;DHT22;727;48.892;9.544;2023-05-07T15:01:15;18.00;99.90
1468;DHT22;727;48.892;9.544;2023-05-07T15:03:42;18.00;99.90
1468;DHT22;727;48.892;9.544;2023-05-07T15:06:08;18.00;99.90
1468;DHT22;727;48.892;9.544;2023-05-07T15:08:36;18.00;99.90
1468;DHT22;727;48.892;9.544;2023-05-07T15:11:04;17.80;99.90
1468;DHT22;727;48.892;9.544;2023-05-07T15:13:32;17.60;99.90
1468;DHT22;727;48.892;9.544;2023-05-07T15:19:26;17.60;99.90
1468;DHT22;727;48.892;9.544;2023-05-07T15:22:15;17.50;99.90
1468;DHT22;727;48.892;9.544;2023-05-07T15:24:42;17.40;99.90
1468;DHT22;727;48.892;9.544;2023-05-07T15:30:27;17.30;99.90
1468;DHT22;727;48.892;9.544;2023-05-07T15:33:08;17.20;99.90
1468;DHT22;727;48.892;9.544;2023-05-07T15:35:35;17.20;99.90
1468;DHT22;727;48.892;9.544;2023-05-07T15:38:02;17.20;99.90
1468;DHT22;727;48.892;9.544;2023-05-07T15:40:29;17.20;99.90
1468;DHT22;727;48.892;9.544;2023-05-07T15:43:02;17.20;99.90
1468;DHT22;727;48.892;9.544;2023-05-07T15:45:33;17.20;99.90
1468;DHT22;727;48.892;9.544;2023-05-07T15:48:06;17.20;99.90
1468;DHT22;727;48.892;9.544;2023-05-07T15:50:36;17.10;99.90
1468;DHT22;727;48.892;9.544;2023-05-07T15:53:03;17.00;99.90
1468;DHT22;727;48.892;9.544;2023-05-07T15:55:33;17.00;99.90
1468;DHT22;727;48.892;9.544;2023-05-07T15:58:06;16.90;99.90
1468;DHT22;727;48.892;9.544;2023-05-07T16:00:38;16.80;99.90
1468;DHT22;727;48.892;9.544;2023-05-07T16:03:18;16.80;99.90
1468;DHT22;727;48.892;9.544;2023-05-07T16:05:48;16.70;99.90
1468;DHT22;727;48.892;9.544;2023-05-07T16:08:15;16.70;99.90
1468;DHT22;727;48.892;9.544;2023-05-07T16:10:42;16.70;99.90
1468;DHT22;727;48.892;9.544;2023-05-07T16:13:09;16.70;99.90
1468;DHT22;727;48.892;9.544;2023-05-07T16:15:35;16.60;99.90
1468;DHT22;727;48.892;9.544;2023-05-07T16:18:04;16.50;99.90
1468;DHT22;727;48.892;9.544;2023-05-07T16:20:30;16.50;99.90
1468;DHT22;727;48.892;9.544;2023-05-07T16:22:57;16.50;99.90
1468;DHT22;727;48.892;9.544;2023-05-07T16:25:24;16.50;99.90
1468;DHT22;727;48.892;9.544;2023-05-07T16:27:51;16.50;99.90
1468;DHT22;727;48.892;9.544;2023-05-07T16:30:18;16.40;99.90
1468;DHT22;727;48.892;9.544;2023-05-07T16:32:45;16.40;99.90
1468;DHT22;727;48.892;9.544;2023-05-07T16:35:13;16.40;99.90